Prentice, Wisconsin
Current Conditions -  °F | °C
As of 10:15 PM on Friday 24 Oct 2014 (Local Time) from KPBH Reporting Station
Overcast Overcast  
Wind Chill: 55°   Ceiling: 1000
Heat Index: 55°   Visibility: 10mi
Dew Point: 52°   Wind: 9mph
Humidity: 92%   Direction: 230°SW
Pressure: 29.83"   Gusts: NA
Location:  45.55°N, 90.29°W
Report Text: KPBH 250315Z AUTO 23008KT 10SM OVC010 13/11 A2983 RMK AO2 T01250112
Loading
Personal Weather Stations






























Interactive Weather Map
Tropical Storm Tracking
New forecast layout! Learn more

10-Day Weather Forecast

Advertisements
Track Severe Weather on mobile